Time;durP1;ratioP1;P1;durP2;ratioP2;P2;SDS_P1;SDS_P2;PMS_P1;PMS_P2;Temp;Humidity;BMP_temperature;BMP_pressure;BME280_temperature;BME280_humidity;BME280_pressure;Samples;Min_cycle;Max_cycle;Signal;HPM_P1;HPM_P2
2023/01/22 00:00:31;;;;;;;19.02;16.83;;;;;;;-4.53;99.05;95905.09;5059022;28;20144;-63
2023/01/22 00:02:56;;;;;;;18.52;16.10;;;;;;;-4.36;98.70;95904.63;5081280;28;20028;-62
2023/01/22 00:05:22;;;;;;;18.58;15.60;;;;;;;-4.32;97.84;95909.59;5082290;28;20081;-74
2023/01/22 00:07:47;;;;;;;17.80;15.90;;;;;;;-4.37;96.98;95905.50;5084285;28;20039;-73
2023/01/22 00:10:13;;;;;;;21.42;16.02;;;;;;;-4.37;97.55;95911.47;5088571;28;20482;-73
2023/01/22 00:12:38;;;;;;;20.13;18.02;;;;;;;-4.40;98.08;95908.19;5086394;28;20555;-73
2023/01/22 00:15:04;;;;;;;17.95;16.15;;;;;;;-4.44;96.75;95904.84;5070858;28;20409;-73
2023/01/22 00:17:29;;;;;;;17.20;15.43;;;;;;;-4.43;97.68;95903.97;5088246;28;20024;-73
2023/01/22 00:19:55;;;;;;;17.33;15.52;;;;;;;-4.38;97.44;95914.13;5089516;28;20024;-73
2023/01/22 00:22:21;;;;;;;18.15;16.25;;;;;;;-4.37;98.00;95903.78;5087266;28;20082;-62
2023/01/22 00:24:46;;;;;;;19.23;16.02;;;;;;;-4.31;98.89;95910.47;5089882;28;20089;-72
2023/01/22 00:27:11;;;;;;;16.20;14.57;;;;;;;-4.24;98.11;95906.00;5058050;28;20035;-72
2023/01/22 00:29:37;;;;;;;18.88;16.25;;;;;;;-4.34;96.76;95913.97;5090036;28;20063;-73
2023/01/22 00:32:02;;;;;;;16.65;14.77;;;;;;;-4.37;97.15;95915.81;5086279;28;20031;-73
2023/01/22 00:34:28;;;;;;;16.17;14.55;;;;;;;-4.35;96.81;95917.41;5086787;28;20024;-72
2023/01/22 00:36:53;;;;;;;17.55;15.77;;;;;;;-4.34;96.37;95919.09;5086681;28;20032;-73
2023/01/22 00:39:19;;;;;;;16.88;14.60;;;;;;;-4.34;96.49;95911.38;5082498;28;20040;-73
2023/01/22 00:41:44;;;;;;;16.30;13.50;;;;;;;-4.28;96.48;95910.38;5080018;28;20031;-67
2023/01/22 00:44:09;;;;;;;15.52;14.00;;;;;;;-4.25;96.20;95912.84;5085204;28;20076;-65
2023/01/22 00:46:35;;;;;;;15.75;14.13;;;;;;;-4.22;95.94;95911.91;5087123;28;20103;-65
2023/01/22 00:49:02;;;;;;;15.15;13.65;;;;;;;-4.17;95.20;95910.03;5089260;28;20111;-65
2023/01/22 00:51:28;;;;;;;15.30;13.70;;;;;;;-4.01;94.34;95919.88;5089374;28;20027;-65
2023/01/22 00:53:54;;;;;;;18.65;15.15;;;;;;;-4.10;94.18;95921.81;5095682;28;20024;-65
2023/01/22 00:56:19;;;;;;;19.88;17.33;;;;;;;-4.05;94.27;95926.84;5082246;28;20073;-65
2023/01/22 00:58:44;;;;;;;21.30;18.05;;;;;;;-3.99;94.35;95915.53;5087267;28;20486;-65
2023/01/22 01:01:12;;;;;;;16.52;14.77;;;;;;;-4.14;93.80;95916.84;5083735;28;20068;-70
2023/01/22 01:03:37;;;;;;;15.27;13.75;;;;;;;-4.04;93.24;95919.09;5078565;28;20039;-65
2023/01/22 01:06:07;;;;;;;14.95;13.35;;;;;;;-4.12;92.33;95925.34;5084220;28;20024;-65
2023/01/22 01:08:35;;;;;;;16.05;14.30;;;;;;;-4.22;93.71;95930.75;5083007;28;20481;-65
2023/01/22 01:11:04;;;;;;;16.83;15.07;;;;;;;-4.12;94.37;95925.34;5081503;28;20525;-65
2023/01/22 01:13:33;;;;;;;17.83;16.00;;;;;;;-4.19;94.58;95922.97;5082639;28;20020;-66
2023/01/22 01:16:01;;;;;;;18.23;15.52;;;;;;;-4.22;95.91;95919.63;5061159;28;20028;-65
2023/01/22 01:18:26;;;;;;;16.02;14.32;;;;;;;-4.26;96.05;95918.06;5082061;28;20531;-65
2023/01/22 01:20:53;;;;;;;18.13;14.45;;;;;;;-4.31;96.04;95920.75;5067162;28;20084;-72
2023/01/22 01:23:19;;;;;;;16.15;14.57;;;;;;;-4.32;96.38;95925.03;5085240;28;20440;-64
2023/01/22 01:25:44;;;;;;;18.15;14.70;;;;;;;-4.34;97.16;95915.69;5085591;28;20035;-64
2023/01/22 01:28:09;;;;;;;16.92;14.20;;;;;;;-4.31;96.68;95928.47;5077315;28;20029;-65
2023/01/22 01:30:35;;;;;;;16.75;14.98;;;;;;;-4.32;97.21;95930.19;5079129;28;20013;-64
2023/01/22 01:33:00;;;;;;;16.67;13.98;;;;;;;-4.32;97.38;95930.19;5083780;28;20028;-63
2023/01/22 01:35:25;;;;;;;15.60;14.00;;;;;;;-4.36;97.47;95936.31;5082443;28;20491;-64
2023/01/22 01:37:52;;;;;;;15.27;13.68;;;;;;;-4.32;97.82;95939.63;5080976;28;20445;-64
2023/01/22 01:40:17;;;;;;;16.60;14.95;;;;;;;-4.37;99.78;95950.03;5085082;28;20028;-65
2023/01/22 01:42:44;;;;;;;18.73;15.73;;;;;;;-4.38;99.35;95950.94;5085263;28;20473;-72
2023/01/22 01:45:26;;;;;;;17.80;16.00;;;;;;;-4.38;99.05;95950.94;5081509;28;20031;-73
2023/01/22 01:48:23;;;;;;;16.77;15.07;;;;;;;-4.39;99.43;95951.81;5061519;28;20028;-72
2023/01/22 01:51:09;;;;;;;18.67;16.60;;;;;;;-4.40;98.81;95955.28;5079802;28;20068;-72
2023/01/22 01:53:36;;;;;;;17.95;16.20;;;;;;;-4.36;99.31;95954.31;5094060;28;20089;-72
2023/01/22 01:56:05;;;;;;;18.52;15.23;;;;;;;-4.33;98.44;95958.53;5077528;28;20025;-72
2023/01/22 01:58:33;;;;;;;15.80;14.15;;;;;;;-4.34;99.48;95962.81;5087086;28;20019;-64
2023/01/22 02:01:06;;;;;;;16.00;14.40;;;;;;;-4.32;99.98;95955.88;5079500;28;20024;-65
2023/01/22 02:03:32;;;;;;;14.88;13.43;;;;;;;-4.29;99.11;95961.84;5082572;28;20040;-66
2023/01/22 02:05:57;;;;;;;14.88;13.38;;;;;;;-4.29;98.52;95956.72;5081521;28;20046;-66
2023/01/22 02:08:23;;;;;;;17.02;13.60;;;;;;;-4.31;98.11;95964.47;5080374;28;20700;-66
2023/01/22 02:10:48;;;;;;;17.75;14.25;;;;;;;-4.30;97.97;95963.56;5079240;28;20509;-67
2023/01/22 02:13:21;;;;;;;22.77;16.73;;;;;;;-4.35;96.91;95958.56;5064617;28;20032;-67
2023/01/22 02:15:47;;;;;;;16.77;14.23;;;;;;;-4.41;96.66;95961.31;5078487;28;20522;-66
2023/01/22 02:18:12;;;;;;;14.85;13.40;;;;;;;-4.38;96.95;95955.25;5076342;28;20075;-69
2023/01/22 02:20:39;;;;;;;15.63;14.00;;;;;;;-4.28;96.00;95960.97;5088976;28;20143;-64
2023/01/22 02:23:05;;;;;;;16.67;14.15;;;;;;;-4.32;95.52;95961.03;5084206;28;20049;-64
2023/01/22 02:25:32;;;;;;;17.10;15.00;;;;;;;-4.33;96.55;95963.66;5087132;28;20032;-64
2023/01/22 02:27:58;;;;;;;16.00;14.23;;;;;;;-4.43;98.48;95970.78;5086898;28;20012;-64
2023/01/22 02:30:24;;;;;;;15.43;13.68;;;;;;;-4.44;98.59;95966.53;5083035;28;20121;-64
2023/01/22 02:32:50;;;;;;;16.45;14.70;;;;;;;-4.41;99.28;95966.44;5080229;28;20035;-64
2023/01/22 02:35:15;;;;;;;18.10;15.05;;;;;;;-4.37;98.98;95975.75;5087634;28;20034;-64
2023/01/22 02:37:40;;;;;;;17.25;15.45;;;;;;;-4.27;98.38;95967.78;5089915;28;20036;-64
2023/01/22 02:40:07;;;;;;;19.67;15.18;;;;;;;-4.29;98.73;95967.00;5088725;28;20039;-63
2023/01/22 02:42:32;;;;;;;16.48;14.77;;;;;;;-4.12;97.55;95971.63;5084753;28;20073;-63
2023/01/22 02:44:57;;;;;;;17.33;15.25;;;;;;;-4.21;97.82;95971.00;5088018;28;20058;-62
2023/01/22 02:47:23;;;;;;;18.33;16.42;;;;;;;-4.26;98.61;95965.16;5084613;28;20024;-63
2023/01/22 02:49:48;;;;;;;18.98;17.02;;;;;;;-4.29;98.53;95972.13;5061364;28;20027;-63
2023/01/22 02:52:13;;;;;;;19.92;17.80;;;;;;;-4.46;99.27;95973.47;5091218;28;20020;-62
2023/01/22 02:54:39;;;;;;;25.77;21.55;;;;;;;-4.58;100.00;95966.06;5091227;28;20495;-63
2023/01/22 02:57:04;;;;;;;21.95;19.45;;;;;;;-4.62;100.00;95979.03;5082157;28;20387;-69
2023/01/22 02:59:29;;;;;;;26.13;23.23;;;;;;;-4.77;100.00;95982.84;5087205;28;20027;-72
2023/01/22 03:01:56;;;;;;;19.20;17.25;;;;;;;-4.79;100.00;95979.47;5079931;28;20020;-72
2023/01/22 03:04:22;;;;;;;20.08;15.18;;;;;;;-4.76;99.34;95979.41;5078937;28;20039;-72
2023/01/22 03:06:47;;;;;;;16.63;14.77;;;;;;;-4.79;99.56;95976.91;5085637;28;20032;-72
2023/01/22 03:09:15;;;;;;;20.25;18.05;;;;;;;-4.71;99.74;95981.84;5086713;28;20031;-72
2023/01/22 03:11:45;;;;;;;17.98;16.08;;;;;;;-4.71;99.91;95983.56;5081576;28;20470;-71
2023/01/22 03:22:24;;;;;;;23.02;18.90;;;;;;;-4.80;100.00;95985.50;5084562;28;20573;-66
2023/01/22 03:24:51;;;;;;;18.52;15.30;;;;;;;-4.61;100.00;95985.00;5080484;28;20032;-65
2023/01/22 03:27:18;;;;;;;18.25;16.25;;;;;;;-4.78;99.19;95990.59;5077820;28;20085;-65
2023/01/22 03:29:44;;;;;;;17.85;15.85;;;;;;;-4.82;99.03;95987.28;5056995;28;20024;-65
2023/01/22 03:32:09;;;;;;;22.00;18.00;;;;;;;-4.94;99.72;95979.88;5077975;28;20093;-65
2023/01/22 03:34:36;;;;;;;22.83;17.45;;;;;;;-4.96;99.49;95981.66;5082829;28;20035;-69
2023/01/22 03:37:01;;;;;;;23.10;20.08;;;;;;;-4.99;99.67;95985.13;5081344;28;20036;-63
2023/01/22 03:39:27;;;;;;;19.50;17.60;;;;;;;-5.00;99.59;95980.88;5082362;28;20029;-62
2023/01/22 03:41:53;;;;;;;17.20;15.45;;;;;;;-5.00;99.70;95975.75;5080728;28;20035;-63
2023/01/22 03:44:18;;;;;;;18.95;16.65;;;;;;;-5.01;100.00;95979.19;5073302;28;20017;-63
2023/01/22 03:46:43;;;;;;;19.42;17.35;;;;;;;-4.99;100.00;95985.13;5073809;28;20095;-63
2023/01/22 03:49:11;;;;;;;19.40;15.45;;;;;;;-4.98;100.00;95997.09;5086796;28;20039;-63
2023/01/22 03:51:37;;;;;;;19.15;16.88;;;;;;;-4.96;100.00;95990.22;5085913;28;20016;-63
2023/01/22 03:54:02;;;;;;;19.98;15.40;;;;;;;-4.98;100.00;96002.22;5075668;28;20031;-65
2023/01/22 03:56:28;;;;;;;17.27;15.40;;;;;;;-5.02;100.00;95995.50;5082878;28;20099;-71
2023/01/22 03:58:53;;;;;;;19.42;16.92;;;;;;;-5.03;100.00;95993.81;5080290;28;20024;-65
2023/01/22 04:01:22;;;;;;;18.92;16.95;;;;;;;-5.10;100.00;96000.00;5075347;28;20478;-65
2023/01/22 04:03:48;;;;;;;18.48;15.55;;;;;;;-5.19;100.00;95989.09;5087371;28;20024;-65
2023/01/22 04:06:13;;;;;;;17.30;15.52;;;;;;;-5.21;100.00;95997.69;5089013;28;20027;-64
2023/01/22 04:08:42;;;;;;;16.65;14.95;;;;;;;-5.23;100.00;96002.03;5088081;28;20482;-65
2023/01/22 04:11:08;;;;;;;15.85;14.20;;;;;;;-5.26;100.00;96002.09;5088677;28;20038;-64
2023/01/22 04:13:36;;;;;;;18.40;16.50;;;;;;;-5.25;100.00;96002.06;5089389;28;20078;-69
2023/01/22 04:16:01;;;;;;;18.67;16.35;;;;;;;-5.29;100.00;95997.88;5087389;28;20016;-65
2023/01/22 04:18:27;;;;;;;16.05;14.38;;;;;;;-5.30;100.00;95997.94;5089053;28;20378;-70
2023/01/22 04:20:52;;;;;;;16.65;14.95;;;;;;;-5.35;100.00;96004.00;5088465;28;20020;-70
2023/01/22 04:23:19;;;;;;;16.67;14.98;;;;;;;-5.36;100.00;96004.88;5089063;28;20035;-70
2023/01/22 04:25:45;;;;;;;19.92;14.82;;;;;;;-5.39;100.00;95999.00;5088876;28;20055;-69
2023/01/22 04:28:11;;;;;;;15.05;13.40;;;;;;;-5.36;100.00;96001.47;5086824;28;20059;-70
2023/01/22 04:30:37;;;;;;;15.57;13.90;;;;;;;-5.38;100.00;96008.38;5087967;28;20027;-69
2023/01/22 04:33:03;;;;;;;14.90;13.40;;;;;;;-5.42;100.00;96009.31;5088655;28;20028;-64
2023/01/22 04:35:29;;;;;;;15.75;14.27;;;;;;;-5.44;99.76;96004.22;5088934;28;20028;-71
2023/01/22 04:37:54;;;;;;;16.73;15.02;;;;;;;-5.46;100.00;96006.81;5080715;28;20511;-70
2023/01/22 04:40:20;;;;;;;18.48;15.10;;;;;;;-5.50;100.00;96012.91;5089018;28;20089;-70
2023/01/22 04:42:45;;;;;;;17.73;14.13;;;;;;;-5.48;100.00;96007.75;5088886;28;20050;-70
2023/01/22 04:45:11;;;;;;;15.85;14.30;;;;;;;-5.56;100.00;96010.50;5088444;28;20048;-70
2023/01/22 04:47:41;;;;;;;16.23;14.63;;;;;;;-5.55;100.00;96006.19;5089214;28;20012;-69
2023/01/22 04:50:11;;;;;;;15.07;13.43;;;;;;;-5.53;100.00;96009.56;5092532;28;20436;-69
2023/01/22 04:52:37;;;;;;;14.65;13.10;;;;;;;-5.52;99.89;96014.69;5096088;28;20012;-64
2023/01/22 04:55:03;;;;;;;14.75;13.40;;;;;;;-5.54;100.00;96016.44;5092065;28;20028;-70
2023/01/22 04:57:28;;;;;;;14.77;13.02;;;;;;;-5.43;100.00;96012.75;5092189;28;20024;-70
2023/01/22 04:59:53;;;;;;;14.95;13.00;;;;;;;-5.48;99.54;96018.84;5092655;28;20081;-70
2023/01/22 05:02:18;;;;;;;13.38;12.07;;;;;;;-5.52;98.67;96009.53;5091703;28;20077;-69
2023/01/22 05:04:44;;;;;;;13.93;11.88;;;;;;;-5.49;97.23;96016.34;5091672;28;20028;-69
2023/01/22 05:07:09;;;;;;;14.55;12.80;;;;;;;-5.48;98.51;96020.59;5107604;28;20020;-69
2023/01/22 05:09:35;;;;;;;13.05;11.75;;;;;;;-5.45;97.40;96017.94;5092192;28;20120;-69
2023/01/22 05:12:00;;;;;;;12.70;11.40;;;;;;;-5.51;97.03;96012.97;5092051;28;20024;-64
2023/01/22 05:14:26;;;;;;;13.50;12.13;;;;;;;-5.56;96.83;96015.63;5092208;28;20486;-70
2023/01/22 05:16:51;;;;;;;13.52;11.27;;;;;;;-5.42;96.81;96017.88;5091587;28;20509;-70
2023/01/22 05:19:16;;;;;;;19.17;15.85;;;;;;;-5.53;95.89;96015.56;5091127;28;20119;-70
2023/01/22 05:21:42;;;;;;;15.13;13.50;;;;;;;-5.53;95.90;96023.25;5090630;28;20577;-70
2023/01/22 05:24:08;;;;;;;20.30;16.42;;;;;;;-5.48;95.81;96015.47;5091578;28;20556;-71
2023/01/22 05:26:33;;;;;;;18.05;16.23;;;;;;;-5.58;95.64;96021.66;5091606;28;20032;-70
2023/01/22 05:28:58;;;;;;;24.25;20.33;;;;;;;-5.62;96.48;96021.75;5091553;28;20393;-70
2023/01/22 05:31:24;;;;;;;23.33;20.85;;;;;;;-5.63;96.78;96021.78;5090885;28;20031;-71
2023/01/22 05:33:49;;;;;;;21.77;18.58;;;;;;;-5.65;96.68;96020.97;5091392;28;20160;-64
2023/01/22 05:36:15;;;;;;;20.00;17.63;;;;;;;-5.65;97.45;96019.25;5091635;28;20031;-65
2023/01/22 05:38:40;;;;;;;50.08;36.42;;;;;;;-5.63;97.34;96025.19;5073258;28;20055;-65
2023/01/22 05:41:06;;;;;;;26.67;21.33;;;;;;;-5.58;97.02;96025.09;5091640;28;20089;-65
2023/01/22 05:43:32;;;;;;;12.93;11.73;;;;;;;-5.56;96.13;96025.91;5091216;28;20024;-65
2023/01/22 05:46:00;;;;;;;18.73;16.88;;;;;;;-5.55;96.36;96026.72;5091523;28;20024;-65
2023/01/22 05:48:26;;;;;;;21.60;19.42;;;;;;;-5.55;95.35;96026.72;5089431;28;20059;-65
2023/01/22 05:50:51;;;;;;;17.73;15.93;;;;;;;-5.54;94.79;96024.13;5090369;28;20124;-70
2023/01/22 05:53:16;;;;;;;16.52;14.98;;;;;;;-5.57;94.31;96024.22;5098880;28;20080;-64
2023/01/22 05:55:42;;;;;;;16.10;14.63;;;;;;;-5.55;94.82;96026.72;5091189;28;20016;-64
2023/01/22 05:58:07;;;;;;;17.63;15.68;;;;;;;-5.59;95.30;96030.25;5083213;28;20106;-64
2023/01/22 06:00:32;;;;;;;19.55;16.23;;;;;;;-5.63;96.06;96035.44;5088778;28;20027;-64
2023/01/22 06:02:59;;;;;;;15.18;13.57;;;;;;;-5.49;96.79;96032.56;5084334;28;20067;-64
2023/01/22 06:05:25;;;;;;;16.05;13.80;;;;;;;-5.25;94.93;96032.03;5087334;28;20051;-64
2023/01/22 06:07:50;;;;;;;14.23;12.75;;;;;;;-5.30;94.60;96037.25;5090815;28;20056;-64
2023/01/22 06:10:16;;;;;;;13.10;11.65;;;;;;;-5.30;94.76;96034.69;5090699;28;20028;-64
2023/01/22 06:12:42;;;;;;;12.68;11.13;;;;;;;-5.21;94.48;96037.03;5090877;28;20031;-64
2023/01/22 06:15:08;;;;;;;14.48;11.43;;;;;;;-5.29;94.07;96044.09;5090719;28;20028;-65
2023/01/22 06:17:33;;;;;;;13.50;11.95;;;;;;;-5.22;93.87;96040.47;5090745;28;20024;-65
2023/01/22 06:19:58;;;;;;;15.25;12.98;;;;;;;-5.23;93.95;96043.94;5090927;28;20031;-64
2023/01/22 06:22:23;;;;;;;24.02;20.70;;;;;;;-5.14;94.15;96050.56;5090545;28;20024;-65
2023/01/22 06:24:49;;;;;;;17.67;15.52;;;;;;;-5.15;93.40;96050.63;5090473;28;20117;-65
2023/01/22 06:27:14;;;;;;;25.13;22.42;;;;;;;-5.33;94.60;96052.75;5090896;28;20141;-65
2023/01/22 06:29:39;;;;;;;19.85;17.83;;;;;;;-5.29;95.76;96059.47;5090217;28;20031;-66
2023/01/22 06:32:05;;;;;;;19.33;17.27;;;;;;;-5.27;95.62;96057.72;5090493;28;20493;-66
2023/01/22 06:34:30;;;;;;;20.55;14.80;;;;;;;-5.39;96.33;96053.72;5090617;28;20020;-65
2023/01/22 06:36:55;;;;;;;19.15;14.77;;;;;;;-5.48;95.85;96052.22;5090481;28;20076;-66
2023/01/22 06:39:21;;;;;;;14.75;12.48;;;;;;;-5.51;96.66;96056.59;5089994;28;20127;-66
2023/01/22 06:41:47;;;;;;;16.27;13.80;;;;;;;-5.52;96.95;96047.22;5090440;28;20028;-67
2023/01/22 06:44:12;;;;;;;14.80;13.30;;;;;;;-5.50;97.26;96048.84;5090049;28;20028;-67
2023/01/22 06:46:38;;;;;;;14.90;13.43;;;;;;;-5.46;97.05;96057.31;5071664;28;20028;-67
2023/01/22 06:49:03;;;;;;;16.23;13.43;;;;;;;-5.43;97.98;96051.25;5089891;28;20047;-72
2023/01/22 06:51:30;;;;;;;13.15;11.93;;;;;;;-5.39;97.31;96053.72;5090194;28;20032;-68
2023/01/22 06:53:55;;;;;;;16.58;13.73;;;;;;;-5.40;97.03;96061.47;5100216;28;20567;-68
2023/01/22 06:56:20;;;;;;;13.98;12.40;;;;;;;-5.35;97.39;96054.50;5089894;28;20119;-68
2023/01/22 06:58:46;;;;;;;14.52;13.13;;;;;;;-5.39;96.30;96065.72;5088775;28;20096;-68
2023/01/22 07:01:11;;;;;;;15.73;13.77;;;;;;;-5.44;96.14;96059.84;5091335;28;20031;-68
2023/01/22 07:03:36;;;;;;;22.15;16.80;;;;;;;-5.46;96.10;96067.59;5090493;28;20024;-69
2023/01/22 07:06:03;;;;;;;20.13;17.98;;;;;;;-5.49;96.43;96073.63;5090691;28;20027;-65
2023/01/22 07:08:30;;;;;;;18.55;15.93;;;;;;;-5.49;96.68;96083.88;5091889;28;20126;-71
2023/01/22 07:10:56;;;;;;;16.02;13.60;;;;;;;-5.44;96.74;96076.09;5083291;28;20028;-65
2023/01/22 07:13:22;;;;;;;14.45;12.95;;;;;;;-5.48;97.23;96079.63;5087392;28;20042;-64
2023/01/22 07:15:48;;;;;;;16.00;13.00;;;;;;;-5.51;97.00;96079.69;5083819;28;20020;-65
2023/01/22 07:18:13;;;;;;;14.27;12.85;;;;;;;-5.45;96.42;96074.41;5089091;28;20026;-65
2023/01/22 07:20:41;;;;;;;15.70;13.05;;;;;;;-5.46;96.13;96077.84;5086189;28;20045;-65
2023/01/22 07:23:07;;;;;;;22.85;19.88;;;;;;;-5.47;95.76;96082.13;5087417;28;20443;-64
2023/01/22 07:25:32;;;;;;;24.95;21.83;;;;;;;-5.48;96.37;96083.00;5087248;28;20444;-64
2023/01/22 07:28:02;;;;;;;26.70;21.20;;;;;;;-5.49;96.54;96089.03;5086996;28;20040;-64
2023/01/22 07:30:28;;;;;;;19.33;16.75;;;;;;;-5.49;94.86;96094.16;5091372;28;20488;-65
2023/01/22 07:32:56;;;;;;;19.52;17.23;;;;;;;-5.50;94.55;96095.03;5089613;28;20035;-65
2023/01/22 07:35:21;;;;;;;18.52;16.25;;;;;;;-5.50;95.47;96100.16;5088427;28;20020;-65
2023/01/22 07:37:51;;;;;;;19.75;17.65;;;;;;;-5.54;95.67;96106.25;5089526;28;20043;-65
2023/01/22 07:40:17;;;;;;;23.17;20.00;;;;;;;-5.50;96.44;96092.47;5092010;28;20060;-65
2023/01/22 07:42:42;;;;;;;19.20;17.10;;;;;;;-5.47;96.32;96105.22;5088192;28;20539;-65
2023/01/22 07:45:08;;;;;;;16.13;14.30;;;;;;;-5.51;95.87;96102.78;5088314;28;20465;-70
2023/01/22 07:47:33;;;;;;;21.90;18.35;;;;;;;-5.46;96.20;96111.22;5084072;28;20620;-63
2023/01/22 07:49:58;;;;;;;21.55;18.40;;;;;;;-5.47;95.63;96107.78;5087666;28;20697;-70
2023/01/22 07:52:24;;;;;;;21.83;17.02;;;;;;;-5.55;95.31;96102.00;5083307;28;20472;-70
2023/01/22 07:54:49;;;;;;;25.85;17.63;;;;;;;-5.50;95.37;96107.88;5083528;28;20027;-70
2023/01/22 07:57:15;;;;;;;18.60;16.50;;;;;;;-5.57;95.11;96115.72;5088728;28;20020;-69
2023/01/22 07:59:41;;;;;;;21.05;16.85;;;;;;;-5.45;95.50;96110.34;5081054;28;20397;-70
2023/01/22 08:02:11;;;;;;;16.90;14.75;;;;;;;-5.33;94.93;96116.91;5090861;28;20040;-70
2023/01/22 08:04:36;;;;;;;16.63;14.93;;;;;;;-5.37;94.40;96123.81;5096273;28;20076;-66
2023/01/22 08:07:01;;;;;;;26.77;24.08;;;;;;;-5.34;94.03;96122.94;5093140;28;21966;-63
2023/01/22 08:09:27;;;;;;;21.00;17.60;;;;;;;-5.43;95.36;96120.56;5089130;28;20500;-63
2023/01/22 08:11:52;;;;;;;24.38;19.25;;;;;;;-5.37;95.02;96121.25;5088338;28;20059;-63
2023/01/22 08:14:18;;;;;;;19.77;16.75;;;;;;;-5.34;94.86;96117.78;5095072;28;20088;-63
2023/01/22 08:16:44;;;;;;;25.08;22.50;;;;;;;-5.29;95.45;96126.22;5096156;28;20028;-64
2023/01/22 08:19:09;;;;;;;23.45;21.25;;;;;;;-5.15;94.99;96123.34;5091133;28;20032;-63
2023/01/22 08:21:34;;;;;;;17.55;15.45;;;;;;;-4.97;93.42;96121.22;5089562;28;20556;-63
2023/01/22 08:24:00;;;;;;;16.77;14.40;;;;;;;-4.97;93.00;96116.94;5096156;28;20103;-64
2023/01/22 08:26:26;;;;;;;17.60;15.75;;;;;;;-5.05;92.62;96122.25;5094185;28;20028;-63
2023/01/22 08:28:51;;;;;;;15.68;14.00;;;;;;;-5.09;91.22;96123.19;5094266;28;20027;-64
2023/01/22 08:31:16;;;;;;;26.55;23.73;;;;;;;-5.12;91.94;96125.00;5097364;28;20035;-65
2023/01/22 08:33:41;;;;;;;28.30;24.15;;;;;;;-5.09;91.79;96127.50;5086295;28;20051;-64
2023/01/22 08:36:07;;;;;;;22.02;18.52;;;;;;;-5.09;91.63;96132.63;5079855;28;20128;-64
2023/01/22 08:38:33;;;;;;;18.48;15.85;;;;;;;-4.86;90.71;96132.09;5083000;28;20075;-65
2023/01/22 08:40:58;;;;;;;16.27;13.38;;;;;;;-4.76;89.11;96137.81;5081888;28;20051;-64
2023/01/22 08:43:23;;;;;;;17.50;15.73;;;;;;;-4.83;88.82;96138.88;5074616;28;20036;-62
2023/01/22 08:45:49;;;;;;;19.50;17.50;;;;;;;-4.85;89.40;96135.50;5088656;28;20032;-63
2023/01/22 08:48:15;;;;;;;16.23;14.70;;;;;;;-4.74;88.48;96143.81;5092790;28;20032;-63
2023/01/22 08:50:40;;;;;;;15.85;12.88;;;;;;;-4.76;87.05;96140.41;5092420;28;20405;-62
2023/01/22 08:53:06;;;;;;;15.30;12.23;;;;;;;-4.80;87.72;96133.66;5095628;28;20028;-60
2023/01/22 08:55:31;;;;;;;13.48;12.23;;;;;;;-4.63;86.65;96141.78;5093992;28;20103;-61
2023/01/22 08:57:57;;;;;;;13.95;11.18;;;;;;;-4.52;86.03;96138.97;5094733;28;20560;-61
2023/01/22 09:00:24;;;;;;;11.30;10.00;;;;;;;-4.53;85.23;96142.41;5093728;28;20066;-61
2023/01/22 09:02:49;;;;;;;14.70;10.73;;;;;;;-4.43;84.86;96148.16;5093340;28;20070;-65
2023/01/22 09:05:14;;;;;;;12.07;10.77;;;;;;;-4.35;84.83;96141.09;5090085;28;20044;-64
2023/01/22 09:07:40;;;;;;;12.43;10.80;;;;;;;-4.31;83.72;96154.72;5093453;28;20027;-65
2023/01/22 09:10:07;;;;;;;12.00;10.75;;;;;;;-4.32;84.29;96150.47;5094127;28;21170;-67
2023/01/22 09:12:33;;;;;;;14.50;11.50;;;;;;;-4.28;83.00;96149.50;5091146;28;20044;-65
2023/01/22 09:14:59;;;;;;;10.60;9.50;;;;;;;-4.12;83.48;96144.78;5092096;28;20020;-65
2023/01/22 09:17:24;;;;;;;13.30;10.15;;;;;;;-4.03;81.91;96143.69;5090229;28;20028;-64
2023/01/22 09:19:49;;;;;;;12.82;10.25;;;;;;;-4.06;82.36;96156.63;5074192;28;20092;-65
2023/01/22 09:22:15;;;;;;;11.02;9.80;;;;;;;-3.90;81.18;96157.91;5088065;28;20039;-62
2023/01/22 09:24:40;;;;;;;12.15;9.25;;;;;;;-3.91;80.19;96163.09;5088754;28;20028;-65
2023/01/22 09:27:07;;;;;;;17.23;10.02;;;;;;;-3.68;80.26;96159.88;5092609;28;20038;-65
2023/01/22 09:29:32;;;;;;;14.85;13.30;;;;;;;-3.81;80.42;96159.38;5088718;28;20494;-71
2023/01/22 09:31:58;;;;;;;19.10;15.57;;;;;;;-3.79;80.64;96170.47;5094093;28;20035;-66
2023/01/22 09:34:23;;;;;;;18.73;16.80;;;;;;;-3.76;80.08;96178.09;5092915;28;20099;-64
2023/01/22 09:36:49;;;;;;;16.05;13.90;;;;;;;-3.77;80.02;96173.84;5090746;28;20035;-62
2023/01/22 09:39:14;;;;;;;13.18;11.75;;;;;;;-3.72;80.39;96183.16;5087815;28;20347;-64
2023/01/22 09:41:45;;;;;;;11.57;10.13;;;;;;;-3.75;81.01;96182.38;5095268;28;20443;-63
2023/01/22 09:44:42;;;;;;;16.75;12.20;;;;;;;-3.75;80.50;96187.53;5092105;28;20036;-70
2023/01/22 09:47:29;;;;;;;18.25;14.05;;;;;;;-3.74;79.73;96196.94;5086497;28;20036;-71
2023/01/22 09:50:06;;;;;;;16.75;12.20;;;;;;;-3.78;78.44;96200.47;5086658;28;20047;-69
2023/01/22 09:52:36;;;;;;;19.20;15.13;;;;;;;-3.76;80.51;96203.84;5087235;28;20557;-72
2023/01/22 09:55:01;;;;;;;12.77;10.88;;;;;;;-3.59;79.76;96192.25;5087129;28;20462;-74
2023/01/22 09:57:27;;;;;;;18.08;13.52;;;;;;;-3.50;78.34;96197.13;5089249;28;20130;-70
2023/01/22 09:59:55;;;;;;;8.80;8.00;;;;;;;-3.38;76.73;96193.34;5090847;28;21856;-62
2023/01/22 10:02:28;;;;;;;10.43;8.93;;;;;;;-3.27;76.74;96187.88;5096033;28;20019;-61
2023/01/22 10:05:02;;;;;;;10.52;8.60;;;;;;;-3.24;75.61;96192.94;5085593;28;20028;-63
2023/01/22 10:07:35;;;;;;;10.37;9.30;;;;;;;-3.28;74.01;96186.19;5091600;28;20016;-63
2023/01/22 10:10:17;;;;;;;14.50;10.60;;;;;;;-3.32;74.45;96184.63;5084286;28;20435;-64
2023/01/22 10:12:45;;;;;;;8.45;7.65;;;;;;;-3.23;73.62;96178.34;5088084;28;20839;-64
2023/01/22 10:15:19;;;;;;;8.60;7.82;;;;;;;-3.26;73.53;96189.56;5088110;28;20040;-63
2023/01/22 10:17:46;;;;;;;11.10;8.00;;;;;;;-3.20;73.65;96176.53;5091274;28;20529;-61
2023/01/22 10:20:13;;;;;;;8.25;7.32;;;;;;;-3.14;73.49;96178.06;5085703;28;20102;-60
2023/01/22 10:22:38;;;;;;;7.95;7.18;;;;;;;-3.11;74.59;96183.13;5087380;28;20472;-59
2023/01/22 10:25:04;;;;;;;9.93;8.10;;;;;;;-3.01;73.98;96181.09;5092947;28;20055;-60
2023/01/22 10:27:38;;;;;;;8.30;7.30;;;;;;;-3.02;74.63;96176.84;5099685;28;20028;-59
2023/01/22 10:30:16;;;;;;;11.40;9.45;;;;;;;-2.95;75.78;96177.50;5091282;28;20028;-59
2023/01/22 10:32:41;;;;;;;11.50;9.00;;;;;;;-2.96;74.17;96178.41;5092153;28;20027;-60
2023/01/22 10:35:09;;;;;;;12.43;10.07;;;;;;;-2.90;73.91;96180.78;5086473;28;20051;-60
2023/01/22 10:37:44;;;;;;;12.20;9.88;;;;;;;-2.93;74.40;96186.03;5089900;28;20104;-66
2023/01/22 10:40:27;;;;;;;10.48;9.30;;;;;;;-2.77;73.84;96191.53;5093720;28;20027;-67
2023/01/22 10:43:10;;;;;;;14.25;9.27;;;;;;;-2.68;72.38;96190.41;5090623;28;20119;-60
2023/01/22 10:45:37;;;;;;;10.50;8.82;;;;;;;-2.67;71.71;96198.09;5097980;28;20687;-60
2023/01/22 10:48:04;;;;;;;8.45;7.57;;;;;;;-2.71;73.00;96188.78;5097442;28;20032;-59
2023/01/22 10:50:30;;;;;;;9.10;8.20;;;;;;;-2.62;72.22;96193.66;5095891;28;20696;-60
2023/01/22 10:52:57;;;;;;;10.23;8.73;;;;;;;-2.54;72.42;96192.53;5092960;28;20032;-60
2023/01/22 10:55:31;;;;;;;9.57;8.32;;;;;;;-2.31;71.10;96189.22;5094902;28;20056;-61
2023/01/22 10:58:06;;;;;;;8.20;7.43;;;;;;;-2.27;69.97;96187.41;5097675;28;20024;-61
2023/01/22 11:00:34;;;;;;;9.93;8.07;;;;;;;-2.47;68.69;96194.06;5094458;28;20270;-70
2023/01/22 11:03:00;;;;;;;43.25;39.00;;;;;;;-2.41;69.99;96188.69;5095158;28;20046;-70
2023/01/22 11:05:34;;;;;;;20.27;18.23;;;;;;;-2.41;69.86;96186.09;5095382;28;20019;-70
2023/01/22 11:08:03;;;;;;;11.57;10.15;;;;;;;-2.33;69.72;96181.53;5099647;28;20412;-70
2023/01/22 11:10:48;;;;;;;18.42;16.73;;;;;;;-2.27;70.13;96184.81;5087246;28;20044;-70
2023/01/22 11:13:17;;;;;;;11.57;10.38;;;;;;;-2.20;68.35;96189.72;5085892;28;20028;-72
2023/01/22 11:15:47;;;;;;;17.85;15.98;;;;;;;-2.13;68.34;96182.59;5089993;28;20030;-72
2023/01/22 11:18:30;;;;;;;18.73;13.40;;;;;;;-2.15;68.81;96176.66;5089464;28;20030;-64
2023/01/22 11:20:57;;;;;;;11.82;10.25;;;;;;;-2.05;67.76;96177.19;5089647;28;20421;-63
2023/01/22 11:23:52;;;;;;;17.17;14.52;;;;;;;-2.00;67.98;96179.59;5092242;28;20056;-64